Time;durP1;ratioP1;P1;durP2;ratioP2;P2;SDS_P1;SDS_P2;PMS_P1;PMS_P2;Temp;Humidity;BMP_temperature;BMP_pressure;BME280_temperature;BME280_humidity;BME280_pressure;Samples;Min_cycle;Max_cycle;Signal;HPM_P1;HPM_P2
2021/09/05 00:00:52;;;;;;;15.70;10.27;;;;;;;;;;5026996;28;20644;-64
2021/09/05 00:03:17;;;;;;;14.13;9.05;;;;;;;;;;5028832;28;20336;-63
2021/09/05 00:05:42;;;;;;;15.43;10.20;;;;;;;;;;5025699;28;20025;-63
2021/09/05 00:08:08;;;;;;;18.80;9.50;;;;;;;;;;5025071;28;20033;-63
2021/09/05 00:10:33;;;;;;;14.65;9.60;;;;;;;;;;5025146;28;20025;-64
2021/09/05 00:12:58;;;;;;;14.38;8.27;;;;;;;;;;5025947;28;20380;-63
2021/09/05 00:15:23;;;;;;;13.35;7.90;;;;;;;;;;5023027;28;20022;-64
2021/09/05 00:17:48;;;;;;;12.98;8.00;;;;;;;;;;5029942;28;20052;-63
2021/09/05 00:20:14;;;;;;;11.48;7.75;;;;;;;;;;5025229;28;20041;-64
2021/09/05 00:22:39;;;;;;;12.48;7.85;;;;;;;;;;5028011;28;20032;-64
2021/09/05 00:25:04;;;;;;;12.07;8.15;;;;;;;;;;5030522;28;20017;-64
2021/09/05 00:27:29;;;;;;;13.18;8.45;;;;;;;;;;5026723;28;20530;-63
2021/09/05 00:29:55;;;;;;;14.23;8.30;;;;;;;;;;5025119;28;20389;-63
2021/09/05 00:32:20;;;;;;;12.65;7.80;;;;;;;;;;5025878;28;20063;-64
2021/09/05 00:34:45;;;;;;;12.38;8.32;;;;;;;;;;5023221;28;20160;-63
2021/09/05 00:37:10;;;;;;;12.80;8.13;;;;;;;;;;5026869;28;20049;-64
2021/09/05 00:39:35;;;;;;;12.55;8.57;;;;;;;;;;5024971;28;20277;-64
2021/09/05 00:42:01;;;;;;;14.38;9.73;;;;;;;;;;5026727;28;20057;-63
2021/09/05 00:44:26;;;;;;;14.38;8.40;;;;;;;;;;5026854;28;20746;-64
2021/09/05 00:46:51;;;;;;;14.20;9.17;;;;;;;;;;5029126;28;20037;-63
2021/09/05 00:49:16;;;;;;;12.65;8.82;;;;;;;;;;5029025;28;20276;-63
2021/09/05 00:51:42;;;;;;;14.85;8.80;;;;;;;;;;5028679;28;20031;-63
2021/09/05 00:54:08;;;;;;;19.27;9.60;;;;;;;;;;5022134;28;20946;-63
2021/09/05 00:56:35;;;;;;;13.15;8.60;;;;;;;;;;5029744;28;20017;-63
2021/09/05 00:59:06;;;;;;;13.43;8.90;;;;;;;;;;5020877;28;20116;-64
2021/09/05 01:01:31;;;;;;;16.10;9.63;;;;;;;;;;5023376;28;20021;-63
2021/09/05 01:03:56;;;;;;;13.57;8.65;;;;;;;;;;5028905;28;20477;-63
2021/09/05 01:06:21;;;;;;;18.67;8.83;;;;;;;;;;5022308;28;20036;-63
2021/09/05 01:08:48;;;;;;;13.40;8.52;;;;;;;;;;5022822;28;20284;-63
2021/09/05 01:11:13;;;;;;;12.50;8.27;;;;;;;;;;5020615;28;20109;-63
2021/09/05 01:13:39;;;;;;;13.75;8.23;;;;;;;;;;5025207;28;20096;-64
2021/09/05 01:16:04;;;;;;;12.52;7.88;;;;;;;;;;5027475;28;20053;-64
2021/09/05 01:18:29;;;;;;;12.52;7.85;;;;;;;;;;5028389;28;20025;-63
2021/09/05 01:20:54;;;;;;;14.65;7.72;;;;;;;;;;5028979;28;20033;-64
2021/09/05 01:23:19;;;;;;;12.60;7.47;;;;;;;;;;5023858;28;20358;-63
2021/09/05 01:25:45;;;;;;;10.10;6.57;;;;;;;;;;5026012;28;20492;-63
2021/09/05 01:28:11;;;;;;;12.18;7.47;;;;;;;;;;5028925;28;20022;-64
2021/09/05 01:30:36;;;;;;;12.48;7.55;;;;;;;;;;5027847;28;20381;-63
2021/09/05 01:33:01;;;;;;;12.50;7.57;;;;;;;;;;5026764;28;20025;-63
2021/09/05 01:35:27;;;;;;;11.57;7.03;;;;;;;;;;5028247;28;20022;-63
2021/09/05 01:37:52;;;;;;;12.15;7.47;;;;;;;;;;5021400;28;20033;-63
2021/09/05 01:40:17;;;;;;;9.10;6.10;;;;;;;;;;5027870;28;20021;-63
2021/09/05 01:42:42;;;;;;;13.27;7.40;;;;;;;;;;5027774;28;20137;-64
2021/09/05 01:45:07;;;;;;;13.45;8.07;;;;;;;;;;5027285;28;20029;-63
2021/09/05 01:47:33;;;;;;;10.70;7.00;;;;;;;;;;5027839;28;20480;-63
2021/09/05 01:49:58;;;;;;;11.68;6.53;;;;;;;;;;5028930;28;20033;-64
2021/09/05 01:52:23;;;;;;;11.40;7.10;;;;;;;;;;5027283;28;20032;-64
2021/09/05 01:54:48;;;;;;;11.25;7.20;;;;;;;;;;5027164;28;20029;-63
2021/09/05 01:57:13;;;;;;;11.55;7.15;;;;;;;;;;5022322;28;20033;-63
2021/09/05 01:59:38;;;;;;;10.77;6.95;;;;;;;;;;5025444;28;20021;-63
2021/09/05 02:02:04;;;;;;;12.32;7.70;;;;;;;;;;5024156;28;20025;-63
2021/09/05 02:04:29;;;;;;;10.35;6.78;;;;;;;;;;5028461;28;20037;-63
2021/09/05 02:06:54;;;;;;;11.25;7.80;;;;;;;;;;5023233;28;20492;-63
2021/09/05 02:09:19;;;;;;;11.20;7.40;;;;;;;;;;5027537;28;20033;-63
2021/09/05 02:11:44;;;;;;;10.82;6.30;;;;;;;;;;5024040;28;20779;-62
2021/09/05 02:14:09;;;;;;;10.68;7.45;;;;;;;;;;5027921;28;20014;-63
2021/09/05 02:16:35;;;;;;;9.77;7.15;;;;;;;;;;5027862;28;20556;-63
2021/09/05 02:19:01;;;;;;;10.25;7.15;;;;;;;;;;5022326;28;20047;-64
2021/09/05 02:21:26;;;;;;;10.57;6.60;;;;;;;;;;5028602;28;20063;-63
2021/09/05 02:23:51;;;;;;;13.15;6.68;;;;;;;;;;5031486;28;20112;-63
2021/09/05 02:26:16;;;;;;;12.57;7.45;;;;;;;;;;5032166;28;20048;-63
2021/09/05 02:28:42;;;;;;;12.02;6.45;;;;;;;;;;5031609;28;20037;-62
2021/09/05 02:31:07;;;;;;;10.13;6.40;;;;;;;;;;5029861;28;20095;-63
2021/09/05 02:33:32;;;;;;;11.98;7.18;;;;;;;;;;5031196;28;20282;-64
2021/09/05 02:35:57;;;;;;;10.55;6.85;;;;;;;;;;5031649;28;20029;-64
2021/09/05 02:38:22;;;;;;;11.45;7.38;;;;;;;;;;5032481;28;20112;-63
2021/09/05 02:40:48;;;;;;;10.68;7.22;;;;;;;;;;5027697;28;20115;-63
2021/09/05 02:43:13;;;;;;;10.68;6.50;;;;;;;;;;5029769;28;20029;-63
2021/09/05 02:45:38;;;;;;;11.95;6.85;;;;;;;;;;5032193;28;20022;-63
2021/09/05 02:48:04;;;;;;;11.00;6.77;;;;;;;;;;5031722;28;20029;-63
2021/09/05 02:50:29;;;;;;;11.77;6.57;;;;;;;;;;5031439;28;20751;-63
2021/09/05 02:52:54;;;;;;;11.68;6.80;;;;;;;;;;5031474;28;20080;-63
2021/09/05 02:55:19;;;;;;;11.88;6.63;;;;;;;;;;5031392;28;20389;-63
2021/09/05 02:57:44;;;;;;;9.93;6.40;;;;;;;;;;5030931;28;20111;-62
2021/09/05 03:00:10;;;;;;;9.43;6.30;;;;;;;;;;5030913;28;20021;-68
2021/09/05 03:02:35;;;;;;;9.00;5.78;;;;;;;;;;5026936;28;20041;-63
2021/09/05 03:05:00;;;;;;;10.38;6.38;;;;;;;;;;5029659;28;20016;-63
2021/09/05 03:07:25;;;;;;;12.00;6.18;;;;;;;;;;5026408;28;20116;-63
2021/09/05 03:09:51;;;;;;;11.85;6.07;;;;;;;;;;5029064;28;20038;-64
2021/09/05 03:12:16;;;;;;;10.60;6.38;;;;;;;;;;5025441;28;20018;-64
2021/09/05 03:14:41;;;;;;;11.27;6.45;;;;;;;;;;5025342;28;20029;-62
2021/09/05 03:17:06;;;;;;;10.82;6.38;;;;;;;;;;5031516;28;20021;-63
2021/09/05 03:19:31;;;;;;;14.00;6.43;;;;;;;;;;5030484;28;20454;-63
2021/09/05 03:21:57;;;;;;;11.75;6.25;;;;;;;;;;5032082;28;20415;-62
2021/09/05 03:24:22;;;;;;;9.27;6.18;;;;;;;;;;5030747;28;20135;-62
2021/09/05 03:26:47;;;;;;;8.15;5.78;;;;;;;;;;5030499;28;20116;-63
2021/09/05 03:29:12;;;;;;;11.03;6.60;;;;;;;;;;5026843;28;20018;-63
2021/09/05 03:31:37;;;;;;;9.48;6.55;;;;;;;;;;5031131;28;20688;-64
2021/09/05 03:34:02;;;;;;;10.55;6.03;;;;;;;;;;5029496;28;20017;-63
2021/09/05 03:36:28;;;;;;;9.63;5.88;;;;;;;;;;5025087;28;20492;-63
2021/09/05 03:38:53;;;;;;;9.80;6.57;;;;;;;;;;5031174;28;20017;-62
2021/09/05 03:41:18;;;;;;;14.07;6.28;;;;;;;;;;5027394;28;20493;-64
2021/09/05 03:43:43;;;;;;;12.02;5.80;;;;;;;;;;5020577;28;20032;-63
2021/09/05 03:46:09;;;;;;;10.43;6.47;;;;;;;;;;5031028;28;20072;-64
2021/09/05 03:48:34;;;;;;;9.23;5.88;;;;;;;;;;5028082;28;20484;-63
2021/09/05 03:50:59;;;;;;;9.77;6.18;;;;;;;;;;5033215;28;20464;-63
2021/09/05 03:53:26;;;;;;;9.80;5.97;;;;;;;;;;5030806;28;20033;-63
2021/09/05 03:55:51;;;;;;;9.82;6.22;;;;;;;;;;5030288;28;20652;-63
2021/09/05 03:58:17;;;;;;;11.57;6.63;;;;;;;;;;5025951;28;20042;-63
2021/09/05 04:00:42;;;;;;;10.68;6.03;;;;;;;;;;5031175;28;20356;-64
2021/09/05 04:03:07;;;;;;;9.63;6.43;;;;;;;;;;5030224;28;20873;-63
2021/09/05 04:05:32;;;;;;;9.50;6.10;;;;;;;;;;5020342;28;20026;-63
2021/09/05 04:08:16;;;;;;;10.80;6.95;;;;;;;;;;5026570;28;20041;-63
2021/09/05 04:10:42;;;;;;;9.90;6.75;;;;;;;;;;5025808;28;20028;-63
2021/09/05 04:13:08;;;;;;;11.05;6.40;;;;;;;;;;5023973;28;20022;-63
2021/09/05 04:15:33;;;;;;;10.52;6.85;;;;;;;;;;5022852;28;20026;-62
2021/09/05 04:17:58;;;;;;;11.70;6.43;;;;;;;;;;5019242;28;20036;-63
2021/09/05 04:20:24;;;;;;;10.20;6.60;;;;;;;;;;5026726;28;20104;-63
2021/09/05 04:22:50;;;;;;;10.18;6.53;;;;;;;;;;5029167;28;20044;-64
2021/09/05 04:25:15;;;;;;;9.02;6.22;;;;;;;;;;5028550;28;20461;-64
2021/09/05 04:27:40;;;;;;;11.68;7.00;;;;;;;;;;5029149;28;20382;-64
2021/09/05 04:30:06;;;;;;;10.52;6.35;;;;;;;;;;5030271;28;20380;-63
2021/09/05 04:32:32;;;;;;;9.15;5.78;;;;;;;;;;5026339;28;20044;-63
2021/09/05 04:34:57;;;;;;;9.90;6.35;;;;;;;;;;5023062;28;20026;-63
2021/09/05 04:37:23;;;;;;;10.05;6.18;;;;;;;;;;5020458;28;20512;-63
2021/09/05 04:39:48;;;;;;;10.27;6.63;;;;;;;;;;5025390;28;20041;-63
2021/09/05 04:42:13;;;;;;;10.07;6.63;;;;;;;;;;5027057;28;20045;-62
2021/09/05 04:44:39;;;;;;;9.35;6.35;;;;;;;;;;5026450;28;20057;-63
2021/09/05 04:47:05;;;;;;;9.40;5.90;;;;;;;;;;5019759;28;20052;-63
2021/09/05 04:49:30;;;;;;;9.40;5.97;;;;;;;;;;5023508;28;20028;-62
2021/09/05 04:51:55;;;;;;;11.85;6.38;;;;;;;;;;5029722;28;20037;-64
2021/09/05 04:54:20;;;;;;;9.90;6.18;;;;;;;;;;5029261;28;20025;-63
2021/09/05 04:56:46;;;;;;;9.80;6.15;;;;;;;;;;5029497;28;20025;-63
2021/09/05 04:59:11;;;;;;;10.05;6.65;;;;;;;;;;5027214;28;20029;-63
2021/09/05 05:01:36;;;;;;;9.77;6.28;;;;;;;;;;5029547;28;20040;-64
2021/09/05 05:04:01;;;;;;;10.20;6.60;;;;;;;;;;5025210;28;20033;-63
2021/09/05 05:06:26;;;;;;;8.05;5.40;;;;;;;;;;5029059;28;20025;-64
2021/09/05 05:08:51;;;;;;;7.97;5.35;;;;;;;;;;5023104;28;20092;-63
2021/09/05 05:11:16;;;;;;;9.38;6.40;;;;;;;;;;5028228;28;20283;-64
2021/09/05 05:13:45;;;;;;;8.95;6.10;;;;;;;;;;5028764;28;20040;-64
2021/09/05 05:16:10;;;;;;;11.57;6.70;;;;;;;;;;5028353;28;20136;-64
2021/09/05 05:18:35;;;;;;;9.38;5.95;;;;;;;;;;5026428;28;20041;-64
2021/09/05 05:21:01;;;;;;;10.20;6.22;;;;;;;;;;5020569;28;20029;-64
2021/09/05 05:23:26;;;;;;;12.18;6.43;;;;;;;;;;5028935;28;20125;-63
2021/09/05 05:25:52;;;;;;;9.02;5.93;;;;;;;;;;5029126;28;20029;-64
2021/09/05 05:28:17;;;;;;;9.18;6.45;;;;;;;;;;5028872;28;20037;-64
2021/09/05 05:30:42;;;;;;;11.05;6.03;;;;;;;;;;5024620;28;20037;-64
2021/09/05 05:33:07;;;;;;;9.90;6.03;;;;;;;;;;5029623;28;20421;-63
2021/09/05 05:35:32;;;;;;;10.80;5.82;;;;;;;;;;5024209;28;20056;-63
2021/09/05 05:37:58;;;;;;;9.85;5.35;;;;;;;;;;5025410;28;20047;-64
2021/09/05 05:40:25;;;;;;;9.38;5.65;;;;;;;;;;5026348;28;20028;-64
2021/09/05 05:42:50;;;;;;;9.00;5.22;;;;;;;;;;5026093;28;20049;-63
2021/09/05 05:45:17;;;;;;;7.72;5.28;;;;;;;;;;5027792;28;20532;-63
2021/09/05 05:47:42;;;;;;;6.68;4.72;;;;;;;;;;5027130;28;20473;-63
2021/09/05 05:50:07;;;;;;;6.88;4.78;;;;;;;;;;5027397;28;20041;-65
2021/09/05 05:52:33;;;;;;;7.13;4.95;;;;;;;;;;5026443;28;20017;-63
2021/09/05 05:54:58;;;;;;;6.77;4.57;;;;;;;;;;5022656;28;20032;-63
2021/09/05 05:57:24;;;;;;;6.57;4.33;;;;;;;;;;5021397;28;20303;-63
2021/09/05 05:59:49;;;;;;;6.80;4.28;;;;;;;;;;5027757;28;20589;-64
2021/09/05 06:02:15;;;;;;;7.87;4.37;;;;;;;;;;5026232;28;20044;-63
2021/09/05 06:04:40;;;;;;;9.02;4.80;;;;;;;;;;5028615;28;20298;-62
2021/09/05 06:07:05;;;;;;;6.40;4.23;;;;;;;;;;5023258;28;20507;-64
2021/09/05 06:09:30;;;;;;;8.13;4.63;;;;;;;;;;5027615;28;20280;-63
2021/09/05 06:11:55;;;;;;;6.47;4.37;;;;;;;;;;5025337;28;20292;-63
2021/09/05 06:14:20;;;;;;;7.33;4.00;;;;;;;;;;5024232;28;20358;-64
2021/09/05 06:16:46;;;;;;;6.63;4.43;;;;;;;;;;5027863;28;20286;-64
2021/09/05 06:19:11;;;;;;;6.00;3.87;;;;;;;;;;5024299;28;20280;-63
2021/09/05 06:21:36;;;;;;;6.10;3.80;;;;;;;;;;5026996;28;20295;-63
2021/09/05 06:24:01;;;;;;;5.63;3.83;;;;;;;;;;5028279;28;20038;-63
2021/09/05 06:26:26;;;;;;;5.63;3.80;;;;;;;;;;5025110;28;20780;-64
2021/09/05 06:28:51;;;;;;;6.43;4.20;;;;;;;;;;5027893;28;20025;-63
2021/09/05 06:31:17;;;;;;;7.67;4.03;;;;;;;;;;5024791;28;20345;-63
2021/09/05 06:33:42;;;;;;;7.53;4.40;;;;;;;;;;5026524;28;20284;-63
2021/09/05 06:36:07;;;;;;;7.50;3.90;;;;;;;;;;5026692;28;20284;-63
2021/09/05 06:38:32;;;;;;;7.30;4.80;;;;;;;;;;5027903;28;20276;-64
2021/09/05 06:40:57;;;;;;;7.37;4.80;;;;;;;;;;5025041;28;20061;-63
2021/09/05 06:43:22;;;;;;;6.90;4.43;;;;;;;;;;5026740;28;20387;-63
2021/09/05 06:45:48;;;;;;;7.23;4.63;;;;;;;;;;5027989;28;20268;-63
2021/09/05 06:48:13;;;;;;;6.68;4.45;;;;;;;;;;5022064;28;20307;-63
2021/09/05 06:50:38;;;;;;;5.85;4.20;;;;;;;;;;5027972;28;20022;-63
2021/09/05 06:53:03;;;;;;;8.83;5.27;;;;;;;;;;5024697;28;20033;-63
2021/09/05 06:55:29;;;;;;;8.13;5.28;;;;;;;;;;5028310;28;20327;-63
2021/09/05 06:57:54;;;;;;;7.63;4.60;;;;;;;;;;5027034;28;20034;-63
2021/09/05 07:00:19;;;;;;;7.13;4.93;;;;;;;;;;5026872;28;20354;-63
2021/09/05 07:02:44;;;;;;;6.28;4.63;;;;;;;;;;5023671;28;20299;-63
2021/09/05 07:05:10;;;;;;;7.60;4.87;;;;;;;;;;5025772;28;20460;-62
2021/09/05 07:07:35;;;;;;;8.77;5.18;;;;;;;;;;5027931;28;20260;-64
2021/09/05 07:10:00;;;;;;;7.10;4.22;;;;;;;;;;5027087;28;20751;-64
2021/09/05 07:12:25;;;;;;;7.57;5.07;;;;;;;;;;5021263;28;20037;-63
2021/09/05 07:14:50;;;;;;;6.87;4.63;;;;;;;;;;5026930;28;20275;-60
2021/09/05 07:17:16;;;;;;;7.20;4.97;;;;;;;;;;5023308;28;20335;-60
2021/09/05 07:19:41;;;;;;;8.87;4.87;;;;;;;;;;5031993;28;20291;-61
2021/09/05 07:22:06;;;;;;;8.97;4.70;;;;;;;;;;5023094;28;20303;-64
2021/09/05 07:24:31;;;;;;;7.45;5.05;;;;;;;;;;5030601;28;20627;-69
2021/09/05 07:26:57;;;;;;;7.63;5.03;;;;;;;;;;5022984;28;20044;-68
2021/09/05 07:29:22;;;;;;;9.57;5.40;;;;;;;;;;5026833;28;20037;-68
2021/09/05 07:31:47;;;;;;;8.00;5.20;;;;;;;;;;5027082;28;20299;-69
2021/09/05 07:34:12;;;;;;;7.00;4.87;;;;;;;;;;5024911;28;20273;-69
2021/09/05 07:36:37;;;;;;;9.13;5.25;;;;;;;;;;5027964;28;20323;-69
2021/09/05 07:39:03;;;;;;;8.80;5.20;;;;;;;;;;5031358;28;20055;-69
2021/09/05 07:41:28;;;;;;;8.55;5.55;;;;;;;;;;5028761;28;20061;-69
2021/09/05 07:43:54;;;;;;;8.60;5.35;;;;;;;;;;5019846;28;20037;-69
2021/09/05 07:46:19;;;;;;;8.55;5.13;;;;;;;;;;5030688;28;20017;-66
2021/09/05 07:48:44;;;;;;;8.93;5.38;;;;;;;;;;5030650;28;20088;-67
2021/09/05 07:51:09;;;;;;;8.57;5.18;;;;;;;;;;5030900;28;20013;-67
2021/09/05 07:53:34;;;;;;;7.28;4.93;;;;;;;;;;5027106;28;20056;-69
2021/09/05 07:56:00;;;;;;;8.67;5.27;;;;;;;;;;5030812;28;20075;-69
2021/09/05 07:58:27;;;;;;;7.87;4.90;;;;;;;;;;5030323;28;20323;-68
2021/09/05 08:00:53;;;;;;;8.68;5.60;;;;;;;;;;5030781;28;20291;-68
2021/09/05 08:03:18;;;;;;;7.85;4.95;;;;;;;;;;5029455;28;20493;-69
2021/09/05 08:05:43;;;;;;;7.50;4.77;;;;;;;;;;5028551;28;20021;-69
2021/09/05 08:08:09;;;;;;;8.23;5.45;;;;;;;;;;5030101;28;20323;-70
2021/09/05 08:10:34;;;;;;;6.60;4.53;;;;;;;;;;5030191;28;20022;-69
2021/09/05 08:12:59;;;;;;;9.57;5.68;;;;;;;;;;5030328;28;20116;-69
2021/09/05 08:15:26;;;;;;;6.43;4.93;;;;;;;;;;5030486;28;20009;-68
2021/09/05 08:17:51;;;;;;;7.20;5.35;;;;;;;;;;5029930;28;20783;-69
2021/09/05 08:20:16;;;;;;;8.20;5.53;;;;;;;;;;5028158;28;20112;-70
2021/09/05 08:22:45;;;;;;;8.35;4.85;;;;;;;;;;5028740;28;20300;-69
2021/09/05 08:25:10;;;;;;;6.53;4.30;;;;;;;;;;5030575;28;20017;-66
2021/09/05 08:27:35;;;;;;;8.82;5.32;;;;;;;;;;5021796;28;20025;-69
2021/09/05 08:30:01;;;;;;;12.97;4.80;;;;;;;;;;5027747;28;20061;-68
2021/09/05 08:32:26;;;;;;;6.28;4.53;;;;;;;;;;5025052;28;20628;-69
2021/09/05 08:34:51;;;;;;;6.57;4.80;;;;;;;;;;5023592;28;20064;-68
2021/09/05 08:37:16;;;;;;;10.05;5.88;;;;;;;;;;5030474;28;20037;-69
2021/09/05 08:39:42;;;;;;;7.67;5.07;;;;;;;;;;5029115;28;20064;-68
2021/09/05 08:42:07;;;;;;;9.98;5.07;;;;;;;;;;5029666;28;20308;-69
2021/09/05 08:44:32;;;;;;;7.03;4.90;;;;;;;;;;5027300;28;20053;-68
2021/09/05 08:46:59;;;;;;;9.00;5.32;;;;;;;;;;5025975;28;20040;-69
2021/09/05 08:49:30;;;;;;;8.73;5.05;;;;;;;;;;5022599;28;20045;-73
2021/09/05 08:51:55;;;;;;;11.07;6.70;;;;;;;;;;5029804;28;20472;-72
2021/09/05 08:54:21;;;;;;;8.52;5.18;;;;;;;;;;5028625;28;20139;-69
2021/09/05 08:56:50;;;;;;;10.32;5.78;;;;;;;;;;5026602;28;20481;-68
2021/09/05 08:59:15;;;;;;;9.47;6.97;;;;;;;;;;5028154;28;20311;-69
2021/09/05 09:01:50;;;;;;;9.07;6.10;;;;;;;;;;5026451;28;20279;-70
2021/09/05 09:04:15;;;;;;;11.80;6.80;;;;;;;;;;5027022;28;20029;-70
2021/09/05 09:06:41;;;;;;;9.30;5.13;;;;;;;;;;5029436;28;20425;-69
2021/09/05 09:09:07;;;;;;;10.30;6.22;;;;;;;;;;5025759;28;20291;-69
2021/09/05 09:11:48;;;;;;;9.35;6.22;;;;;;;;;;5029108;28;20028;-70
2021/09/05 09:14:14;;;;;;;10.27;5.20;;;;;;;;;;5028548;28;20476;-62
2021/09/05 09:16:39;;;;;;;9.77;6.00;;;;;;;;;;5026961;28;20025;-64
2021/09/05 09:19:05;;;;;;;12.07;6.30;;;;;;;;;;5029352;28;20026;-64
2021/09/05 09:21:36;;;;;;;10.75;6.60;;;;;;;;;;5029580;28;20433;-63
2021/09/05 09:24:07;;;;;;;9.65;5.43;;;;;;;;;;5028678;28;20517;-64
2021/09/05 09:26:32;;;;;;;8.73;5.35;;;;;;;;;;5022279;28;20032;-63
2021/09/05 09:28:57;;;;;;;8.90;5.53;;;;;;;;;;5027085;28;20030;-64
2021/09/05 09:31:24;;;;;;;9.45;5.18;;;;;;;;;;5027097;28;20329;-63
2021/09/05 09:33:56;;;;;;;8.68;4.95;;;;;;;;;;5027397;28;20052;-60
2021/09/05 09:36:23;;;;;;;7.55;4.60;;;;;;;;;;5024541;28;20036;-60
2021/09/05 09:38:57;;;;;;;7.35;4.72;;;;;;;;;;5029136;28;20041;-60
2021/09/05 09:41:26;;;;;;;7.15;4.53;;;;;;;;;;5024842;28;20669;-61
2021/09/05 09:43:53;;;;;;;6.88;4.53;;;;;;;;;;5029093;28;20111;-61
2021/09/05 09:46:20;;;;;;;7.70;4.57;;;;;;;;;;5026525;28;20037;-61
2021/09/05 09:48:46;;;;;;;6.18;4.57;;;;;;;;;;5022247;28;20089;-60
2021/09/05 09:51:12;;;;;;;8.32;4.75;;;;;;;;;;5030131;28;20128;-62
2021/09/05 09:53:41;;;;;;;7.68;5.28;;;;;;;;;;5028019;28;20043;-61
2021/09/05 09:56:07;;;;;;;6.82;4.45;;;;;;;;;;5028315;28;20041;-62
2021/09/05 09:58:32;;;;;;;7.15;4.78;;;;;;;;;;5024574;28;20036;-62
2021/09/05 10:00:58;;;;;;;6.25;4.78;;;;;;;;;;5027300;28;20055;-64
2021/09/05 10:03:23;;;;;;;9.77;4.97;;;;;;;;;;5028246;28;20048;-66
2021/09/05 10:05:49;;;;;;;6.82;4.38;;;;;;;;;;5024412;28;20453;-63
2021/09/05 10:08:16;;;;;;;6.97;4.75;;;;;;;;;;5027569;28;20070;-63
2021/09/05 10:10:42;;;;;;;8.50;4.57;;;;;;;;;;5027994;28;20101;-63
2021/09/05 10:13:07;;;;;;;7.93;4.23;;;;;;;;;;5026963;28;20104;-61
2021/09/05 10:15:33;;;;;;;5.80;3.72;;;;;;;;;;5027948;28;20735;-63
2021/09/05 10:17:59;;;;;;;6.32;4.22;;;;;;;;;;5023835;28;20026;-63
2021/09/05 10:20:24;;;;;;;7.85;5.00;;;;;;;;;;5028702;28;20499;-61
2021/09/05 10:22:50;;;;;;;8.57;4.80;;;;;;;;;;5026554;28;20508;-62
2021/09/05 10:25:16;;;;;;;8.07;4.80;;;;;;;;;;5027691;28;20041;-62
2021/09/05 10:27:46;;;;;;;9.57;4.95;;;;;;;;;;5026043;28;20040;-62
2021/09/05 10:30:11;;;;;;;8.80;5.93;;;;;;;;;;5022387;28;20033;-61
2021/09/05 10:32:57;;;;;;;7.38;6.20;;;;;;;;;;5027383;28;20021;-61
2021/09/05 10:35:26;;;;;;;6.85;4.30;;;;;;;;;;5027079;28;20389;-62
2021/09/05 10:38:15;;;;;;;6.25;4.40;;;;;;;;;;5027645;28;20519;-63
2021/09/05 10:40:40;;;;;;;9.30;5.57;;;;;;;;;;5021331;28;20037;-62
2021/09/05 10:43:05;;;;;;;7.53;5.30;;;;;;;;;;5028867;28;20037;-61
2021/09/05 10:45:30;;;;;;;5.70;3.80;;;;;;;;;;5029601;28;20026;-62
2021/09/05 10:47:56;;;;;;;6.60;4.20;;;;;;;;;;5032288;28;20525;-62
2021/09/05 10:50:39;;;;;;;7.40;5.60;;;;;;;;;;5031913;28;20039;-62
2021/09/05 10:53:20;;;;;;;7.38;4.68;;;;;;;;;;5025951;28;20383;-63
2021/09/05 10:56:02;;;;;;;6.50;4.75;;;;;;;;;;5026959;28;20029;-63
2021/09/05 10:58:37;;;;;;;7.65;4.72;;;;;;;;;;5025100;28;20639;-62
2021/09/05 11:01:18;;;;;;;7.13;4.88;;;;;;;;;;5029494;28;20614;-63
2021/09/05 11:04:02;;;;;;;8.75;4.75;;;;;;;;;;5031974;28;20095;-63
2021/09/05 11:06:34;;;;;;;6.93;4.20;;;;;;;;;;5030863;28;20502;-63
2021/09/05 11:09:17;;;;;;;5.97;4.32;;;;;;;;;;5030315;28;20057;-63
2021/09/05 11:12:01;;;;;;;6.97;4.35;;;;;;;;;;5032011;28;20029;-63
2021/09/05 11:14:38;;;;;;;6.82;4.95;;;;;;;;;;5026223;28;20560;-62
2021/09/05 11:17:12;;;;;;;7.25;5.10;;;;;;;;;;5025622;28;20572;-63
2021/09/05 11:19:44;;;;;;;6.68;4.70;;;;;;;;;;5027854;28;20025;-64
2021/09/05 11:22:13;;;;;;;6.38;4.68;;;;;;;;;;5026057;28;20034;-65
2021/09/05 11:24:39;;;;;;;8.18;5.20;;;;;;;;;;5024903;28;20480;-63
2021/09/05 11:27:05;;;;;;;6.78;4.43;;;;;;;;;;5024252;28;20116;-63
2021/09/05 11:29:31;;;;;;;6.78;3.78;;;;;;;;;;5023660;28;20099;-62
2021/09/05 11:32:00;;;;;;;9.27;5.93;;;;;;;;;;5021581;28;20469;-62
2021/09/05 11:34:25;;;;;;;7.78;5.30;;;;;;;;;;5031365;28;20067;-62
2021/09/05 11:36:50;;;;;;;5.70;4.30;;;;;;;;;;5026017;28;20049;-64
2021/09/05 11:39:15;;;;;;;7.10;5.37;;;;;;;;;;5030004;28;20468;-61
2021/09/05 11:41:40;;;;;;;6.73;4.87;;;;;;;;;;5027665;28;20045;-62
2021/09/05 11:44:06;;;;;;;7.22;4.32;;;;;;;;;;5031115;28;20353;-63
2021/09/05 11:46:31;;;;;;;6.60;4.70;;;;;;;;;;5030207;28;20021;-62
2021/09/05 11:49:01;;;;;;;6.53;5.00;;;;;;;;;;5030588;28;20634;-63
2021/09/05 11:51:26;;;;;;;7.00;4.30;;;;;;;;;;5034496;28;20252;-62
2021/09/05 11:54:09;;;;;;;9.27;4.05;;;;;;;;;;5030277;28;20098;-62
2021/09/05 11:56:35;;;;;;;7.97;4.80;;;;;;;;;;5026294;28;20025;-63
2021/09/05 11:59:13;;;;;;;5.50;3.53;;;;;;;;;;5018254;28;20018;-62
2021/09/05 12:01:38;;;;;;;6.10;3.60;;;;;;;;;;5021048;28;20081;-63
2021/09/05 12:04:04;;;;;;;5.22;3.35;;;;;;;;;;5030821;28;20038;-63
2021/09/05 12:06:29;;;;;;;8.60;4.45;;;;;;;;;;5024121;28;20029;-63
2021/09/05 12:08:54;;;;;;;6.63;5.47;;;;;;;;;;5030759;28;20036;-62
2021/09/05 12:11:19;;;;;;;8.13;4.80;;;;;;;;;;5030054;28;20026;-63
2021/09/05 12:13:48;;;;;;;6.37;4.40;;;;;;;;;;5030786;28;20320;-64
2021/09/05 12:16:44;;;;;;;5.60;3.83;;;;;;;;;;5025383;28;20032;-63
2021/09/05 12:19:09;;;;;;;5.75;3.60;;;;;;;;;;5008336;28;20030;-62
2021/09/05 12:21:36;;;;;;;6.78;4.30;;;;;;;;;;5007581;28;20025;-63
2021/09/05 12:24:02;;;;;;;5.07;3.35;;;;;;;;;;4999114;28;20168;-63
2021/09/05 12:26:27;;;;;;;6.90;4.45;;;;;;;;;;5008168;28;20105;-62
2021/09/05 12:29:00;;;;;;;7.50;4.88;;;;;;;;;;5004462;28;20038;-63
2021/09/05 12:31:57;;;;;;;6.22;3.58;;;;;;;;;;5001903;28;20026;-63
2021/09/05 12:34:34;;;;;;;6.47;4.07;;;;;;;;;;4949392;29;20086;-63
2021/09/05 12:37:08;;;;;;;6.07;3.95;;;;;;;;;;4946029;29;20126;-62
2021/09/05 12:39:33;;;;;;;6.90;5.05;;;;;;;;;;4948896;29;20115;-63
2021/09/05 12:42:10;;;;;;;6.60;4.60;;;;;;;;;;4943352;29;20047;-63
2021/09/05 12:44:40;;;;;;;4.88;3.33;;;;;;;;;;4948454;29;20293;-62
2021/09/05 12:47:05;;;;;;;4.57;3.30;;;;;;;;;;4948713;29;20028;-62
2021/09/05 12:49:36;;;;;;;4.60;3.20;;;;;;;;;;4949361;29;20042;-63
2021/09/05 12:52:02;;;;;;;5.70;3.47;;;;;;;;;;4942687;29;20892;-62
2021/09/05 12:54:27;;;;;;;7.53;3.80;;;;;;;;;;4950115;28;20043;-62
2021/09/05 12:56:52;;;;;;;6.85;4.43;;;;;;;;;;4981072;28;20513;-61
2021/09/05 12:59:17;;;;;;;6.00;3.85;;;;;;;;;;4986448;28;20526;-62
2021/09/05 13:01:44;;;;;;;5.75;3.97;;;;;;;;;;4987445;28;20446;-61
2021/09/05 13:04:09;;;;;;;9.35;3.88;;;;;;;;;;4987696;28;20104;-61
2021/09/05 13:06:34;;;;;;;6.15;3.58;;;;;;;;;;4983156;28;20611;-62
2021/09/05 13:08:59;;;;;;;6.68;4.47;;;;;;;;;;4987873;28;20433;-62
2021/09/05 13:11:26;;;;;;;6.15;4.00;;;;;;;;;;5026362;28;20084;-62
2021/09/05 13:13:52;;;;;;;4.18;3.15;;;;;;;;;;5025963;28;20136;-62
2021/09/05 13:16:17;;;;;;;5.53;3.22;;;;;;;;;;5029714;28;20544;-62
2021/09/05 13:18:43;;;;;;;5.47;3.67;;;;;;;;;;5029762;28;20108;-62
2021/09/05 13:21:10;;;;;;;5.63;2.95;;;;;;;;;;5026740;28;20449;-62
2021/09/05 13:23:35;;;;;;;5.93;3.92;;;;;;;;;;5022308;28;20092;-62
2021/09/05 13:26:01;;;;;;;6.00;3.65;;;;;;;;;;5029667;28;20033;-62
2021/09/05 13:28:26;;;;;;;5.97;4.15;;;;;;;;;;5021827;28;20048;-62
2021/09/05 13:30:51;;;;;;;6.25;3.70;;;;;;;;;;5025876;28;20025;-61
2021/09/05 13:33:16;;;;;;;8.23;4.35;;;;;;;;;;5023699;28;20101;-62
2021/09/05 13:35:42;;;;;;;6.00;4.53;;;;;;;;;;5024230;28;20445;-63
2021/09/05 13:38:07;;;;;;;6.25;3.97;;;;;;;;;;5022014;28;20032;-62
2021/09/05 13:40:33;;;;;;;5.90;4.35;;;;;;;;;;5028470;28;20385;-63
2021/09/05 13:42:59;;;;;;;7.63;5.20;;;;;;;;;;5029031;28;20065;-63
2021/09/05 13:45:25;;;;;;;9.82;4.63;;;;;;;;;;5028402;28;20441;-63
2021/09/05 13:47:50;;;;;;;7.90;3.80;;;;;;;;;;5023211;28;20036;-63
2021/09/05 13:50:15;;;;;;;7.28;3.60;;;;;;;;;;5020642;28;20027;-64
2021/09/05 13:52:40;;;;;;;7.35;5.13;;;;;;;;;;5028524;28;20100;-63
2021/09/05 13:55:06;;;;;;;8.37;4.53;;;;;;;;;;5026168;28;20112;-61
2021/09/05 13:57:31;;;;;;;6.68;4.85;;;;;;;;;;5027726;28;20272;-63
2021/09/05 13:59:57;;;;;;;8.50;5.30;;;;;;;;;;5024293;28;20025;-63
2021/09/05 14:02:23;;;;;;;6.72;4.43;;;;;;;;;;5028456;28;20041;-62
2021/09/05 14:04:48;;;;;;;5.90;4.38;;;;;;;;;;5020542;28;20022;-61
2021/09/05 14:07:13;;;;;;;7.70;4.85;;;;;;;;;;5021220;28;20367;-63
2021/09/05 14:09:39;;;;;;;6.33;4.50;;;;;;;;;;5028291;28;20021;-62
2021/09/05 14:12:04;;;;;;;5.97;3.90;;;;;;;;;;5028746;28;20433;-63
2021/09/05 14:14:29;;;;;;;7.63;4.90;;;;;;;;;;5023315;28;20052;-63
2021/09/05 14:16:55;;;;;;;7.07;4.93;;;;;;;;;;5027672;28;20112;-63
2021/09/05 14:19:20;;;;;;;6.35;4.68;;;;;;;;;;5027998;28;20252;-63
2021/09/05 14:21:46;;;;;;;8.27;4.88;;;;;;;;;;5028974;28;20033;-62
2021/09/05 14:24:11;;;;;;;7.10;5.18;;;;;;;;;;5017041;28;20026;-62
2021/09/05 14:26:37;;;;;;;8.70;4.68;;;;;;;;;;5024101;28;20018;-63
2021/09/05 14:29:08;;;;;;;5.75;4.25;;;;;;;;;;5025263;28;20521;-63
2021/09/05 14:31:58;;;;;;;6.75;4.70;;;;;;;;;;5023464;28;20488;-62
2021/09/05 14:34:41;;;;;;;6.75;3.70;;;;;;;;;;5026748;28;20064;-63